createdAt,value
2022-12-05T00:06:10.790Z,3.9
2022-12-05T00:20:41.603Z,3.8
2022-12-05T00:35:12.825Z,3.9
2022-12-05T00:49:44.309Z,3.8
2022-12-05T01:04:15.838Z,3.9
2022-12-05T01:18:48.150Z,3.9
2022-12-05T01:33:20.626Z,3.9
2022-12-05T01:47:58.110Z,3.8
2022-12-05T02:02:24.350Z,3.8
2022-12-05T02:17:00.518Z,3.5
2022-12-05T02:31:27.499Z,3.3
2022-12-05T02:45:58.656Z,3.2
2022-12-05T03:00:28.366Z,3.1
2022-12-05T03:14:59.178Z,3
2022-12-05T03:29:30.264Z,3
2022-12-05T03:44:01.894Z,2.8
2022-12-05T03:58:32.914Z,2.9
2022-12-05T04:13:04.378Z,2.8
2022-12-05T04:27:35.496Z,2.9
2022-12-05T04:42:06.539Z,2.8
2022-12-05T04:56:37.388Z,2.8
2022-12-05T05:11:09.142Z,2.8
2022-12-05T05:25:39.824Z,2.8
2022-12-05T05:40:12.054Z,2.8
2022-12-05T05:54:43.014Z,2.7
2022-12-05T06:09:14.437Z,2.8
2022-12-05T06:23:45.886Z,2.8
2022-12-05T06:38:16.410Z,2.6
2022-12-05T06:52:48.260Z,2.7
2022-12-05T07:07:19.380Z,2.7
2022-12-05T07:21:51.409Z,2.7
2022-12-05T07:36:23.399Z,2.8
2022-12-05T07:50:54.159Z,2.7
2022-12-05T08:05:25.126Z,2.8
2022-12-05T08:19:57.044Z,2.8
2022-12-05T08:34:28.807Z,2.9
2022-12-05T08:49:01.253Z,2.9
2022-12-05T09:03:31.642Z,3.1
2022-12-05T09:18:02.353Z,3
2022-12-05T09:32:34.211Z,3.1
2022-12-05T09:47:06.521Z,2.9
2022-12-05T10:01:38.718Z,3
2022-12-05T10:16:10.406Z,3.2
2022-12-05T10:30:43.082Z,3.2
2022-12-05T10:45:14.335Z,3.1
2022-12-05T10:59:46.722Z,3.2
2022-12-05T11:14:24.542Z,2.9
2022-12-05T11:28:57.978Z,2.9
2022-12-05T11:43:31.201Z,3.1
2022-12-05T11:58:02.926Z,2.9
2022-12-05T12:12:30.471Z,2.9
2022-12-05T12:27:01.486Z,3.1
2022-12-05T12:41:32.781Z,3.1
2022-12-05T12:56:04.536Z,2.9
2022-12-05T13:10:34.170Z,3.1
2022-12-05T13:25:06.669Z,3.2
2022-12-05T13:39:36.374Z,3
2022-12-05T13:54:07.377Z,3
2022-12-05T14:08:38.263Z,2.9
2022-12-05T14:23:10.269Z,3
2022-12-05T14:37:44.410Z,3.1
2022-12-05T14:52:15.505Z,2.9
2022-12-05T15:06:51.601Z,3
2022-12-05T15:21:24.990Z,3
2022-12-05T15:35:53.254Z,3
2022-12-05T15:50:29.134Z,3
2022-12-05T16:05:02.569Z,3
2022-12-05T16:19:30.243Z,2.8
2022-12-05T16:34:01.294Z,2.8
2022-12-05T16:48:31.032Z,2.8
2022-12-05T17:03:26.085Z,2.7
2022-12-05T17:17:52.207Z,2.8
2022-12-05T17:32:29.692Z,2.6
2022-12-05T17:47:07.653Z,2.7
2022-12-05T18:01:33.551Z,2.6
2022-12-05T18:16:03.367Z,2.5
2022-12-05T18:30:33.847Z,2.6
2022-12-05T18:45:04.906Z,2.6
2022-12-05T18:59:36.991Z,2.5
2022-12-05T19:14:08.722Z,2.4
2022-12-05T19:28:40.083Z,2.5
2022-12-05T19:43:15.707Z,2.6
2022-12-05T19:57:50.024Z,2.5
2022-12-05T20:12:17.785Z,2.2
2022-12-05T20:26:49.540Z,2.2
2022-12-05T20:41:20.853Z,2.3
2022-12-05T20:55:50.517Z,2.3
2022-12-05T21:10:28.912Z,2.4
2022-12-05T21:25:03.363Z,2
2022-12-05T21:39:31.478Z,1.9
2022-12-05T21:54:02.186Z,1.8
2022-12-05T22:08:33.456Z,2
2022-12-05T22:23:05.523Z,2.1
2022-12-05T22:37:35.700Z,2.1
2022-12-05T22:52:10.900Z,2.1
2022-12-05T23:06:39.746Z,2.1
2022-12-05T23:21:07.876Z,1.9
2022-12-05T23:35:39.993Z,1.9
2022-12-05T23:50:12.782Z,2.1
